createdAt,value
2018-07-24T00:01:26.958Z,14.40
2018-07-24T00:03:54.964Z,14.40
2018-07-24T00:06:23.312Z,14.40
2018-07-24T00:08:51.371Z,14.50
2018-07-24T00:11:19.424Z,14.40
2018-07-24T00:13:47.483Z,14.40
2018-07-24T00:16:15.514Z,14.40
2018-07-24T00:18:43.648Z,14.30
2018-07-24T00:21:11.740Z,14.30
2018-07-24T00:23:39.745Z,14.30
2018-07-24T00:26:07.791Z,14.30
2018-07-24T00:28:35.834Z,14.30
2018-07-24T00:31:03.866Z,14.20
2018-07-24T00:33:31.871Z,14.20
2018-07-24T00:35:59.917Z,14.10
2018-07-24T00:38:27.929Z,14.10
2018-07-24T00:40:55.965Z,14.10
2018-07-24T00:43:24.017Z,14.10
2018-07-24T00:45:52.082Z,14.10
2018-07-24T00:48:20.214Z,14.00
2018-07-24T00:50:48.229Z,14.00
2018-07-24T00:53:16.245Z,13.90
2018-07-24T00:55:44.280Z,13.90
2018-07-24T00:58:12.285Z,13.90
2018-07-24T01:03:13.016Z,13.90
2018-07-24T01:05:41.044Z,13.90
2018-07-24T01:08:09.070Z,14.00
2018-07-24T01:10:37.080Z,14.00
2018-07-24T01:13:05.206Z,14.00
2018-07-24T01:15:33.191Z,14.00
2018-07-24T01:18:01.440Z,13.90
2018-07-24T01:20:29.810Z,13.80
2018-07-24T01:22:58.149Z,13.80
2018-07-24T01:25:26.160Z,13.80
2018-07-24T01:27:54.183Z,13.80
2018-07-24T01:30:22.353Z,13.80
2018-07-24T01:32:50.379Z,13.80
2018-07-24T01:35:18.433Z,13.90
2018-07-24T01:37:46.445Z,13.90
2018-07-24T01:42:42.309Z,13.90
2018-07-24T01:45:10.362Z,13.90
2018-07-24T01:47:38.428Z,13.90
2018-07-24T01:50:06.467Z,13.90
2018-07-24T01:52:34.484Z,13.80
2018-07-24T01:55:02.516Z,13.80
2018-07-24T01:57:30.547Z,13.80
2018-07-24T01:59:58.571Z,13.80
2018-07-24T02:02:26.570Z,13.80
2018-07-24T02:04:54.574Z,13.80
2018-07-24T02:07:22.626Z,13.80
2018-07-24T02:09:50.642Z,13.80
2018-07-24T02:12:18.693Z,13.80
2018-07-24T02:14:46.812Z,13.80
2018-07-24T02:17:14.833Z,13.70
2018-07-24T02:19:42.878Z,13.70
2018-07-24T02:22:10.911Z,13.70
2018-07-24T02:24:38.939Z,13.70
2018-07-24T02:27:06.981Z,13.70
2018-07-24T02:29:35.029Z,13.70
2018-07-24T02:32:03.137Z,13.70
2018-07-24T02:34:31.172Z,13.70
2018-07-24T02:36:59.199Z,13.70
2018-07-24T02:39:27.233Z,13.70
2018-07-24T02:41:55.291Z,13.70
2018-07-24T02:44:23.305Z,13.70
2018-07-24T02:46:51.372Z,13.70
2018-07-24T02:49:19.386Z,13.60
2018-07-24T02:51:47.479Z,13.60
2018-07-24T02:54:15.535Z,13.60
2018-07-24T02:56:43.578Z,13.50
2018-07-24T02:59:11.598Z,13.50
2018-07-24T03:01:39.618Z,13.50
2018-07-24T03:04:07.642Z,13.50
2018-07-24T03:06:35.703Z,13.50
2018-07-24T03:09:05.543Z,13.50
2018-07-24T03:14:01.510Z,13.60
2018-07-24T03:18:57.434Z,13.60
2018-07-24T03:21:25.478Z,13.60
2018-07-24T03:23:53.572Z,13.70
2018-07-24T03:26:21.583Z,13.70
2018-07-24T03:28:49.639Z,13.70
2018-07-24T03:31:17.669Z,13.70
2018-07-24T03:33:45.918Z,13.80
2018-07-24T03:36:13.938Z,13.90
2018-07-24T03:38:42.019Z,14.00
2018-07-24T03:41:10.126Z,14.10
2018-07-24T03:43:38.206Z,14.20
2018-07-24T03:46:06.268Z,14.40
2018-07-24T03:48:34.362Z,14.60
2018-07-24T03:51:02.419Z,14.80
2018-07-24T03:53:30.499Z,14.90
2018-07-24T03:55:58.555Z,15.20
2018-07-24T03:58:26.770Z,15.50
2018-07-24T04:00:54.778Z,15.80
2018-07-24T04:03:22.823Z,16.10
2018-07-24T04:05:50.845Z,16.40
2018-07-24T04:08:18.868Z,16.70
2018-07-24T04:10:46.894Z,16.90
2018-07-24T04:13:15.025Z,17.20
2018-07-24T04:15:43.035Z,17.40
2018-07-24T04:18:11.137Z,17.60
2018-07-24T04:20:39.162Z,17.90
2018-07-24T04:23:07.264Z,18.10
2018-07-24T04:25:35.283Z,18.30
2018-07-24T04:28:03.356Z,18.50
2018-07-24T04:30:31.438Z,18.40
2018-07-24T04:32:59.494Z,18.30
2018-07-24T04:35:27.539Z,18.70
2018-07-24T04:37:55.606Z,19.10
2018-07-24T04:40:23.735Z,19.70
2018-07-24T04:42:51.758Z,20.20
2018-07-24T04:45:19.831Z,20.60
2018-07-24T04:47:47.869Z,21.00
2018-07-24T04:50:15.955Z,21.40
2018-07-24T04:52:44.015Z,21.60
2018-07-24T04:55:12.071Z,21.60
2018-07-24T04:57:40.094Z,21.70
2018-07-24T05:00:08.306Z,22.10
2018-07-24T05:02:36.400Z,22.40
2018-07-24T05:05:04.437Z,22.80
2018-07-24T05:07:32.447Z,23.10
2018-07-24T05:12:32.919Z,23.50
2018-07-24T05:15:01.027Z,23.70
2018-07-24T05:17:29.151Z,23.80
2018-07-24T05:19:57.213Z,24.10
2018-07-24T05:22:25.240Z,24.40
2018-07-24T05:24:53.334Z,24.50
2018-07-24T05:29:49.210Z,25.00
2018-07-24T05:32:17.244Z,26.00
2018-07-24T05:34:45.303Z,25.30
2018-07-24T05:37:13.326Z,25.30
2018-07-24T05:39:41.354Z,25.30
2018-07-24T05:42:09.432Z,25.30
2018-07-24T05:44:37.571Z,25.30
2018-07-24T05:47:05.741Z,25.40
2018-07-24T05:49:33.783Z,25.30
2018-07-24T05:52:01.805Z,25.30
2018-07-24T05:54:29.872Z,25.10
2018-07-24T05:56:57.967Z,24.90
2018-07-24T05:59:26.066Z,24.90
2018-07-24T06:01:54.136Z,24.90
2018-07-24T06:04:22.169Z,24.90
2018-07-24T06:06:50.235Z,25.00
2018-07-24T06:11:46.158Z,25.00
2018-07-24T06:14:14.209Z,25.00
2018-07-24T06:16:42.308Z,25.10
2018-07-24T06:19:10.398Z,25.30
2018-07-24T06:21:38.853Z,25.40
2018-07-24T06:26:34.776Z,25.70
2018-07-24T06:29:02.788Z,25.70
2018-07-24T06:31:30.794Z,25.80
2018-07-24T06:33:58.836Z,26.00
2018-07-24T06:36:26.871Z,26.00
2018-07-24T06:38:54.971Z,26.10
2018-07-24T06:41:23.016Z,26.10
2018-07-24T06:43:51.074Z,26.20
2018-07-24T06:46:19.200Z,26.40
2018-07-24T06:48:47.222Z,26.60
2018-07-24T06:51:15.271Z,26.70
2018-07-24T06:53:43.349Z,26.60
2018-07-24T06:56:11.586Z,26.80
2018-07-24T06:58:39.650Z,27.00
2018-07-24T07:01:07.844Z,27.20
2018-07-24T07:03:35.990Z,27.50
2018-07-24T07:06:04.201Z,28.70
2018-07-24T07:08:32.348Z,27.60
2018-07-24T07:11:00.402Z,27.80
2018-07-24T07:13:28.494Z,27.90
2018-07-24T07:15:56.574Z,28.10
2018-07-24T07:18:24.583Z,28.10
2018-07-24T07:23:21.542Z,28.50
2018-07-24T07:25:49.567Z,28.60
2018-07-24T07:28:17.653Z,28.50
2018-07-24T07:30:45.703Z,28.70
2018-07-24T07:35:41.582Z,28.80
2018-07-24T07:38:09.606Z,28.60
2018-07-24T07:40:37.662Z,28.70
2018-07-24T07:43:05.688Z,28.70
2018-07-24T07:45:33.729Z,28.90
2018-07-24T07:48:01.757Z,29.10
2018-07-24T07:50:29.782Z,29.20
2018-07-24T07:52:57.795Z,29.30
2018-07-24T07:55:25.897Z,29.40
2018-07-24T07:57:54.123Z,29.50
2018-07-24T08:00:22.147Z,29.70
2018-07-24T08:02:50.171Z,29.90
2018-07-24T08:05:18.224Z,29.60
2018-07-24T08:07:46.245Z,29.50
2018-07-24T08:10:14.267Z,29.80
2018-07-24T08:12:42.327Z,30.10
2018-07-24T08:15:10.417Z,30.20
2018-07-24T08:17:38.447Z,30.20
2018-07-24T08:20:06.523Z,30.00
2018-07-24T08:22:34.620Z,29.90
2018-07-24T08:25:02.713Z,29.60
2018-07-24T08:27:30.749Z,29.60
2018-07-24T08:29:58.770Z,29.70
2018-07-24T08:32:26.792Z,29.90
2018-07-24T08:34:54.878Z,30.00
2018-07-24T08:37:23.186Z,30.10
2018-07-24T08:39:51.264Z,30.30
2018-07-24T08:42:19.390Z,30.60
2018-07-24T08:44:47.498Z,30.80
2018-07-24T08:47:15.576Z,30.70
2018-07-24T08:49:43.613Z,30.90
2018-07-24T08:52:11.921Z,31.20
2018-07-24T08:54:40.133Z,30.60
2018-07-24T08:57:08.068Z,29.60
2018-07-24T08:59:36.262Z,29.90
2018-07-24T09:02:04.354Z,30.10
2018-07-24T09:04:32.376Z,30.50
2018-07-24T09:07:00.413Z,30.90
2018-07-24T09:09:28.434Z,31.30
2018-07-24T09:11:56.532Z,31.60
2018-07-24T09:14:24.562Z,31.50
2018-07-24T09:16:52.633Z,31.60
2018-07-24T09:19:20.748Z,31.70
2018-07-24T09:21:48.826Z,31.30
2018-07-24T09:24:16.955Z,30.50
2018-07-24T09:26:45.010Z,30.20
2018-07-24T09:29:13.096Z,30.10
2018-07-24T09:31:41.134Z,30.80
2018-07-24T09:34:09.153Z,30.90
2018-07-24T09:36:37.195Z,31.60
2018-07-24T09:39:07.906Z,31.90
2018-07-24T09:44:03.858Z,30.70
2018-07-24T09:46:31.916Z,30.70
2018-07-24T09:48:59.936Z,30.30
2018-07-24T09:51:27.968Z,30.40
2018-07-24T09:53:56.135Z,30.80
2018-07-24T09:56:24.308Z,31.20
2018-07-24T09:58:52.315Z,31.50
2018-07-24T10:01:25.845Z,31.50
2018-07-24T10:03:53.870Z,31.10
2018-07-24T10:08:49.726Z,29.80
2018-07-24T10:11:17.808Z,29.10
2018-07-24T10:13:45.886Z,28.90
2018-07-24T10:16:13.923Z,29.10
2018-07-24T10:18:42.092Z,29.30
2018-07-24T10:21:10.235Z,29.50
2018-07-24T10:23:38.245Z,30.20
2018-07-24T10:28:34.168Z,30.60
2018-07-24T10:31:02.204Z,30.50
2018-07-24T10:33:30.356Z,30.00
2018-07-24T10:35:59.792Z,29.50
2018-07-24T10:38:27.819Z,29.10
2018-07-24T10:40:55.871Z,28.90
2018-07-24T10:43:24.034Z,28.80
2018-07-24T10:45:52.103Z,28.60
2018-07-24T10:48:20.147Z,28.50
2018-07-24T10:50:48.167Z,28.60
2018-07-24T10:53:16.241Z,28.60
2018-07-24T10:55:44.305Z,28.70
2018-07-24T10:58:12.414Z,28.80
2018-07-24T11:00:40.481Z,28.80
2018-07-24T11:03:08.621Z,28.80
2018-07-24T11:05:38.576Z,29.10
2018-07-24T11:08:07.103Z,29.20
2018-07-24T11:10:35.155Z,29.30
2018-07-24T11:13:03.228Z,29.50
2018-07-24T11:15:31.422Z,29.80
2018-07-24T11:17:59.567Z,30.10
2018-07-24T11:20:27.635Z,30.20
2018-07-24T11:22:55.868Z,30.30
2018-07-24T11:25:23.703Z,30.50
2018-07-24T11:27:51.766Z,31.00
2018-07-24T11:30:19.771Z,31.20
2018-07-24T11:32:47.809Z,31.20
2018-07-24T11:35:15.850Z,31.30
2018-07-24T11:37:43.893Z,31.50
2018-07-24T11:40:11.914Z,31.80
2018-07-24T11:42:39.976Z,31.90
2018-07-24T11:45:08.093Z,31.90
2018-07-24T11:47:36.106Z,31.80
2018-07-24T11:50:04.310Z,31.60
2018-07-24T11:52:32.429Z,31.60
2018-07-24T11:55:00.476Z,31.50
2018-07-24T11:57:28.490Z,31.10
2018-07-24T11:59:56.542Z,30.80
2018-07-24T12:02:24.640Z,30.80
2018-07-24T12:04:54.809Z,30.50
2018-07-24T12:07:26.045Z,30.70
2018-07-24T12:09:54.338Z,31.30
2018-07-24T12:12:22.368Z,31.70
2018-07-24T12:14:50.700Z,32.10
2018-07-24T12:17:18.846Z,32.60
2018-07-24T12:19:46.903Z,32.60
2018-07-24T12:22:15.512Z,32.30
2018-07-24T12:24:43.630Z,32.10
2018-07-24T12:27:11.748Z,32.30
2018-07-24T12:29:39.694Z,32.80
2018-07-24T12:32:07.740Z,32.70
2018-07-24T12:34:35.751Z,32.20
2018-07-24T12:37:03.772Z,32.40
2018-07-24T12:39:31.786Z,32.80
2018-07-24T12:41:59.818Z,33.00
2018-07-24T12:44:27.885Z,33.10
2018-07-24T12:46:55.890Z,33.30
2018-07-24T12:49:23.951Z,33.50
2018-07-24T12:51:51.969Z,33.60
2018-07-24T12:54:20.142Z,33.60
2018-07-24T12:56:48.180Z,33.60
2018-07-24T12:59:16.220Z,33.60
2018-07-24T13:01:44.238Z,33.50
2018-07-24T13:04:12.326Z,33.30
2018-07-24T13:06:40.285Z,33.40
2018-07-24T13:09:09.463Z,33.30
2018-07-24T13:11:37.498Z,33.00
2018-07-24T13:14:05.573Z,32.80
2018-07-24T13:16:33.626Z,32.50
2018-07-24T13:19:01.666Z,31.70
2018-07-24T13:21:29.723Z,31.70
2018-07-24T13:23:57.757Z,31.90
2018-07-24T13:26:25.791Z,31.70
2018-07-24T13:28:53.838Z,31.20
2018-07-24T13:31:21.944Z,30.50
2018-07-24T13:33:51.328Z,30.30
2018-07-24T13:36:21.601Z,30.30
2018-07-24T13:38:49.728Z,30.30
2018-07-24T13:41:20.823Z,30.30
2018-07-24T13:43:52.943Z,30.20
2018-07-24T13:46:21.048Z,30.20
2018-07-24T13:48:49.812Z,30.10
2018-07-24T13:51:28.211Z,30.20
2018-07-24T13:53:56.422Z,30.40
2018-07-24T13:56:27.108Z,31.10
2018-07-24T13:58:57.809Z,31.70
2018-07-24T14:01:26.267Z,32.10
2018-07-24T14:03:54.393Z,32.30
2018-07-24T14:06:22.415Z,32.50
2018-07-24T14:08:52.954Z,32.60
2018-07-24T14:11:21.034Z,32.40
2018-07-24T14:13:49.070Z,32.30
2018-07-24T14:16:17.469Z,32.10
2018-07-24T14:18:45.512Z,31.70
2018-07-24T14:21:13.550Z,31.40
2018-07-24T14:23:41.624Z,31.00
2018-07-24T14:26:09.802Z,30.80
2018-07-24T14:28:37.822Z,30.60
2018-07-24T14:31:05.926Z,30.40
2018-07-24T14:33:34.123Z,30.30
2018-07-24T14:36:02.302Z,30.60
2018-07-24T14:38:30.322Z,31.00
2018-07-24T14:40:58.418Z,31.40
2018-07-24T14:43:26.468Z,31.80
2018-07-24T14:45:54.592Z,31.90
2018-07-24T14:48:22.680Z,31.90
2018-07-24T14:50:50.815Z,31.60
2018-07-24T14:53:18.857Z,31.30
2018-07-24T14:55:46.896Z,30.90
2018-07-24T14:58:14.929Z,30.60
2018-07-24T15:00:43.020Z,30.30
2018-07-24T15:03:11.042Z,30.20
2018-07-24T15:05:39.085Z,30.00
2018-07-24T15:08:07.186Z,29.90
2018-07-24T15:10:35.234Z,29.90
2018-07-24T15:13:03.353Z,30.20
2018-07-24T15:15:31.403Z,30.50
2018-07-24T15:17:59.678Z,30.80
2018-07-24T15:20:27.837Z,31.20
2018-07-24T15:22:55.887Z,31.30
2018-07-24T15:25:23.950Z,31.00
2018-07-24T15:27:52.158Z,30.70
2018-07-24T15:30:20.212Z,30.60
2018-07-24T15:32:48.341Z,30.50
2018-07-24T15:35:16.402Z,30.60
2018-07-24T15:37:44.863Z,30.60
2018-07-24T15:40:12.944Z,30.60
2018-07-24T15:42:40.967Z,30.60
2018-07-24T15:45:09.016Z,30.50
2018-07-24T15:47:37.120Z,30.50
2018-07-24T15:50:05.327Z,30.80
2018-07-24T15:52:33.363Z,31.10
2018-07-24T15:55:01.367Z,31.20
2018-07-24T15:57:29.410Z,31.30
2018-07-24T16:00:00.269Z,31.40
2018-07-24T16:04:58.310Z,31.60
2018-07-24T16:07:26.347Z,31.70
2018-07-24T16:09:54.365Z,31.60
2018-07-24T16:12:22.427Z,31.60
2018-07-24T16:17:20.657Z,31.60
2018-07-24T16:19:48.843Z,31.40
2018-07-24T16:22:16.943Z,31.10
2018-07-24T16:24:45.106Z,31.00
2018-07-24T16:27:13.244Z,30.90
2018-07-24T16:29:41.273Z,30.90
2018-07-24T16:32:09.468Z,30.80
2018-07-24T16:34:37.690Z,30.90
2018-07-24T16:37:05.715Z,30.90
2018-07-24T16:39:33.742Z,30.80
2018-07-24T16:42:01.783Z,30.80
2018-07-24T16:44:29.998Z,30.90
2018-07-24T16:46:58.016Z,30.80
2018-07-24T16:49:29.447Z,30.70
2018-07-24T16:51:57.542Z,30.70
2018-07-24T16:54:25.586Z,30.50
2018-07-24T16:56:53.621Z,30.40
2018-07-24T16:59:21.698Z,30.10
2018-07-24T17:01:49.709Z,29.90
2018-07-24T17:04:17.768Z,29.80
2018-07-24T17:06:47.865Z,29.70
2018-07-24T17:09:16.179Z,29.60
2018-07-24T17:11:44.193Z,29.50
2018-07-24T17:14:12.287Z,29.50
2018-07-24T17:16:42.777Z,29.30
2018-07-24T17:19:11.013Z,29.00
2018-07-24T17:21:39.104Z,28.70
2018-07-24T17:24:07.151Z,28.50
2018-07-24T17:26:35.263Z,28.40
2018-07-24T17:29:03.295Z,28.30
2018-07-24T17:31:31.349Z,28.30
2018-07-24T17:33:59.382Z,28.40
2018-07-24T17:36:27.428Z,28.50
2018-07-24T17:38:55.476Z,28.60
2018-07-24T17:41:23.505Z,28.70
2018-07-24T17:43:51.530Z,28.80
2018-07-24T17:46:19.562Z,28.90
2018-07-24T17:48:48.046Z,29.00
2018-07-24T17:51:16.095Z,29.00
2018-07-24T17:53:45.812Z,29.10
2018-07-24T17:56:14.748Z,29.00
2018-07-24T17:58:42.789Z,29.00
2018-07-24T18:01:10.930Z,29.00
2018-07-24T18:03:38.945Z,29.00
2018-07-24T18:06:07.060Z,28.90
2018-07-24T18:08:36.584Z,28.90
2018-07-24T18:11:04.594Z,28.90
2018-07-24T18:13:32.639Z,28.90
2018-07-24T18:16:00.733Z,28.90
2018-07-24T18:18:28.694Z,28.80
2018-07-24T18:20:56.803Z,28.60
2018-07-24T18:23:24.903Z,28.40
2018-07-24T18:25:52.966Z,28.20
2018-07-24T18:28:21.055Z,27.90
2018-07-24T18:30:49.075Z,26.20
2018-07-24T18:33:17.150Z,27.50
2018-07-24T18:35:45.151Z,27.30
2018-07-24T18:38:13.274Z,27.20
2018-07-24T18:40:41.315Z,27.00
2018-07-24T18:43:09.995Z,26.80
2018-07-24T18:45:38.040Z,26.60
2018-07-24T18:48:06.112Z,26.50
2018-07-24T18:50:34.223Z,26.40
2018-07-24T18:53:02.238Z,26.20
2018-07-24T18:55:30.314Z,26.10
2018-07-24T18:57:58.351Z,25.90
2018-07-24T19:00:26.391Z,25.70
2018-07-24T19:02:54.445Z,25.50
2018-07-24T19:07:50.450Z,25.20
2018-07-24T19:10:18.490Z,25.00
2018-07-24T19:12:46.519Z,24.90
2018-07-24T19:15:14.550Z,24.80
2018-07-24T19:17:42.602Z,24.60
2018-07-24T19:20:10.760Z,24.40
2018-07-24T19:22:38.758Z,24.30
2018-07-24T19:25:06.776Z,24.20
2018-07-24T19:27:34.862Z,24.00
2018-07-24T19:30:02.888Z,24.00
2018-07-24T19:32:30.905Z,23.80
2018-07-24T19:34:59.186Z,23.70
2018-07-24T19:37:27.163Z,23.60
2018-07-24T19:39:55.186Z,23.60
2018-07-24T19:42:23.358Z,23.40
2018-07-24T19:44:51.438Z,23.30
2018-07-24T19:47:19.594Z,23.20
2018-07-24T19:49:47.735Z,23.10
2018-07-24T19:52:15.720Z,23.00
2018-07-24T19:54:43.740Z,22.80
2018-07-24T19:57:11.820Z,22.70
2018-07-24T19:59:39.846Z,22.60
2018-07-24T20:02:07.873Z,22.50
2018-07-24T20:04:36.096Z,22.40
2018-07-24T20:07:04.110Z,22.20
2018-07-24T20:09:32.126Z,22.10
2018-07-24T20:12:00.138Z,22.00
2018-07-24T21:01:19.300Z,20.70
2018-07-24T21:03:47.336Z,20.70
2018-07-24T21:06:15.384Z,20.60
2018-07-24T21:08:43.411Z,20.50
2018-07-24T21:11:11.426Z,20.50
2018-07-24T21:16:07.332Z,20.40
2018-07-24T21:18:35.482Z,20.30
2018-07-24T21:21:03.528Z,20.30
2018-07-24T21:23:31.611Z,20.20
2018-07-24T21:25:59.648Z,20.10
2018-07-24T21:28:27.737Z,20.00
2018-07-24T21:30:55.780Z,19.90
2018-07-24T21:33:23.844Z,19.80
2018-07-24T21:35:51.858Z,19.70
2018-07-24T21:38:19.948Z,19.70
2018-07-24T21:40:47.976Z,19.70
2018-07-24T21:43:15.991Z,19.60
2018-07-24T21:45:44.244Z,19.60
2018-07-24T21:48:12.270Z,19.50
2018-07-24T21:50:40.929Z,19.50
2018-07-24T21:53:09.011Z,19.40
2018-07-24T21:55:37.056Z,19.40
2018-07-24T22:00:36.343Z,19.30
2018-07-24T22:03:06.082Z,19.30
2018-07-24T22:05:34.405Z,19.30
2018-07-24T22:10:30.342Z,19.20
2018-07-24T22:12:58.383Z,19.00
2018-07-24T22:15:27.278Z,18.90
2018-07-24T22:17:56.039Z,18.80
2018-07-24T22:20:24.344Z,18.80
2018-07-24T22:22:52.611Z,18.70
2018-07-24T22:25:20.638Z,18.70
2018-07-24T22:27:48.694Z,18.70
2018-07-24T22:30:16.741Z,18.70
2018-07-24T22:32:44.783Z,18.60
2018-07-24T22:35:13.012Z,18.60
2018-07-24T22:37:41.043Z,18.60
2018-07-24T22:40:10.643Z,18.50
2018-07-24T22:42:38.661Z,18.50
2018-07-24T22:45:07.146Z,18.40
2018-07-24T22:47:35.180Z,18.40
2018-07-24T22:50:03.223Z,18.40
2018-07-24T22:52:31.251Z,18.30
2018-07-24T22:54:59.326Z,18.30
2018-07-24T22:57:27.358Z,18.30
2018-07-24T22:59:55.402Z,18.30
2018-07-24T23:02:23.406Z,18.30
2018-07-24T23:04:51.430Z,18.30
2018-07-24T23:07:19.455Z,18.20
2018-07-24T23:09:47.485Z,18.10
2018-07-24T23:12:15.492Z,18.10
2018-07-24T23:14:43.534Z,18.00
2018-07-24T23:17:11.564Z,18.00
2018-07-24T23:19:39.597Z,18.00
2018-07-24T23:22:07.633Z,18.00
2018-07-24T23:24:35.650Z,18.00
2018-07-24T23:27:03.696Z,18.00
2018-07-24T23:29:31.709Z,18.00
2018-07-24T23:31:59.740Z,18.00
2018-07-24T23:34:27.738Z,17.90
2018-07-24T23:36:55.798Z,17.90
2018-07-24T23:39:23.806Z,17.90
2018-07-24T23:41:51.843Z,17.90
2018-07-24T23:44:19.883Z,17.80
2018-07-24T23:46:47.925Z,17.80
2018-07-24T23:49:15.938Z,17.60
2018-07-24T23:51:43.975Z,17.50
2018-07-24T23:54:12.008Z,17.50
2018-07-24T23:56:40.046Z,17.40
2018-07-24T23:59:08.084Z,17.40
